sensor_id;sensor_type;location;lat;lon;timestamp;pressure;altitude;pressure_sealevel;temperature;humidity
27202;BME280;14717;46.924;15.474;2024-03-25T00:01:49;96949.50;;;3.14;100.00
27202;BME280;14717;46.924;15.474;2024-03-25T00:04:14;96941.88;;;3.26;100.00
27202;BME280;14717;46.924;15.474;2024-03-25T00:06:40;96929.91;;;3.27;100.00
27202;BME280;14717;46.924;15.474;2024-03-25T00:09:05;96935.09;;;3.34;100.00
27202;BME280;14717;46.924;15.474;2024-03-25T00:11:33;96941.91;;;3.36;100.00
27202;BME280;14717;46.924;15.474;2024-03-25T00:13:58;96934.78;;;3.25;100.00
27202;BME280;14717;46.924;15.474;2024-03-25T00:16:23;96949.72;;;3.03;100.00
27202;BME280;14717;46.924;15.474;2024-03-25T00:18:49;96959.31;;;3.15;100.00
27202;BME280;14717;46.924;15.474;2024-03-25T00:21:14;96962.06;;;3.30;100.00
27202;BME280;14717;46.924;15.474;2024-03-25T00:23:39;96957.59;;;2.85;100.00
27202;BME280;14717;46.924;15.474;2024-03-25T00:26:05;96946.63;;;2.75;100.00
27202;BME280;14717;46.924;15.474;2024-03-25T00:28:30;96950.19;;;2.80;100.00
27202;BME280;14717;46.924;15.474;2024-03-25T00:30:55;96947.72;;;2.79;100.00
27202;BME280;14717;46.924;15.474;2024-03-25T00:33:21;96943.63;;;2.71;100.00
27202;BME280;14717;46.924;15.474;2024-03-25T00:35:47;96952.66;;;2.82;100.00
27202;BME280;14717;46.924;15.474;2024-03-25T00:38:12;96951.75;;;2.61;100.00
27202;BME280;14717;46.924;15.474;2024-03-25T00:40:38;96969.47;;;2.64;100.00
27202;BME280;14717;46.924;15.474;2024-03-25T00:43:03;96943.91;;;2.75;100.00
27202;BME280;14717;46.924;15.474;2024-03-25T00:45:29;96943.56;;;2.56;100.00
27202;BME280;14717;46.924;15.474;2024-03-25T00:47:58;96946.75;;;2.44;100.00
27202;BME280;14717;46.924;15.474;2024-03-25T00:50:25;96941.66;;;2.62;100.00
27202;BME280;14717;46.924;15.474;2024-03-25T00:52:50;96948.44;;;2.54;100.00
27202;BME280;14717;46.924;15.474;2024-03-25T00:55:16;96944.78;;;2.34;100.00
27202;BME280;14717;46.924;15.474;2024-03-25T00:57:41;96947.22;;;2.31;100.00
27202;BME280;14717;46.924;15.474;2024-03-25T01:00:07;96929.25;;;2.35;100.00
27202;BME280;14717;46.924;15.474;2024-03-25T01:02:33;96937.69;;;2.33;100.00
27202;BME280;14717;46.924;15.474;2024-03-25T01:04:58;96946.72;;;2.39;100.00
27202;BME280;14717;46.924;15.474;2024-03-25T01:07:25;96934.00;;;2.59;100.00
27202;BME280;14717;46.924;15.474;2024-03-25T01:09:50;96938.97;;;2.67;100.00
27202;BME280;14717;46.924;15.474;2024-03-25T01:12:17;96929.59;;;2.48;100.00
27202;BME280;14717;46.924;15.474;2024-03-25T01:14:42;96940.38;;;2.28;100.00
27202;BME280;14717;46.924;15.474;2024-03-25T01:17:07;96944.41;;;2.16;100.00
27202;BME280;14717;46.924;15.474;2024-03-25T01:19:33;96949.22;;;2.04;100.00
27202;BME280;14717;46.924;15.474;2024-03-25T01:21:58;96937.66;;;2.28;100.00
27202;BME280;14717;46.924;15.474;2024-03-25T01:24:24;96937.44;;;2.40;100.00
27202;BME280;14717;46.924;15.474;2024-03-25T01:26:50;96921.31;;;2.28;100.00
27202;BME280;14717;46.924;15.474;2024-03-25T01:29:16;96916.44;;;2.30;100.00
27202;BME280;14717;46.924;15.474;2024-03-25T01:31:42;96922.31;;;2.08;100.00
27202;BME280;14717;46.924;15.474;2024-03-25T01:34:07;96921.81;;;2.15;100.00
27202;BME280;14717;46.924;15.474;2024-03-25T01:36:32;96922.88;;;2.14;100.00
27202;BME280;14717;46.924;15.474;2024-03-25T01:38:59;96922.38;;;2.22;100.00
27202;BME280;14717;46.924;15.474;2024-03-25T01:41:24;96927.50;;;2.14;100.00
27202;BME280;14717;46.924;15.474;2024-03-25T01:43:50;96926.50;;;2.30;100.00
27202;BME280;14717;46.924;15.474;2024-03-25T01:46:16;96926.84;;;2.43;100.00
27202;BME280;14717;46.924;15.474;2024-03-25T01:48:43;96937.16;;;2.36;100.00
27202;BME280;14717;46.924;15.474;2024-03-25T01:51:09;96924.41;;;2.42;100.00
27202;BME280;14717;46.924;15.474;2024-03-25T01:53:35;96922.34;;;2.17;100.00
27202;BME280;14717;46.924;15.474;2024-03-25T01:56:01;96930.88;;;2.31;100.00
27202;BME280;14717;46.924;15.474;2024-03-25T01:58:28;96931.66;;;2.26;100.00
27202;BME280;14717;46.924;15.474;2024-03-25T02:00:53;96932.81;;;1.94;100.00
27202;BME280;14717;46.924;15.474;2024-03-25T02:03:20;96929.63;;;2.02;100.00
27202;BME280;14717;46.924;15.474;2024-03-25T02:05:45;96924.84;;;1.83;100.00
27202;BME280;14717;46.924;15.474;2024-03-25T02:08:11;96930.31;;;1.88;100.00
27202;BME280;14717;46.924;15.474;2024-03-25T02:10:37;96935.09;;;2.07;100.00
27202;BME280;14717;46.924;15.474;2024-03-25T02:13:03;96930.72;;;2.06;100.00
27202;BME280;14717;46.924;15.474;2024-03-25T02:15:28;96937.88;;;1.76;100.00
27202;BME280;14717;46.924;15.474;2024-03-25T02:17:54;96932.53;;;1.91;100.00
27202;BME280;14717;46.924;15.474;2024-03-25T02:20:20;96929.78;;;1.86;100.00
27202;BME280;14717;46.924;15.474;2024-03-25T02:22:45;96929.88;;;1.65;100.00
27202;BME280;14717;46.924;15.474;2024-03-25T02:25:11;96924.34;;;1.86;100.00
27202;BME280;14717;46.924;15.474;2024-03-25T02:27:37;96927.84;;;1.81;100.00
27202;BME280;14717;46.924;15.474;2024-03-25T02:30:05;96935.16;;;1.76;100.00
27202;BME280;14717;46.924;15.474;2024-03-25T02:32:32;96929.53;;;1.56;100.00
27202;BME280;14717;46.924;15.474;2024-03-25T02:34:57;96927.25;;;1.74;100.00
27202;BME280;14717;46.924;15.474;2024-03-25T02:37:23;96928.00;;;1.70;100.00
27202;BME280;14717;46.924;15.474;2024-03-25T02:39:49;96924.75;;;1.68;100.00
27202;BME280;14717;46.924;15.474;2024-03-25T02:42:14;96925.25;;;1.34;100.00
27202;BME280;14717;46.924;15.474;2024-03-25T02:44:40;96926.44;;;1.17;100.00
27202;BME280;14717;46.924;15.474;2024-03-25T02:47:08;96922.28;;;1.35;100.00
27202;BME280;14717;46.924;15.474;2024-03-25T02:49:34;96928.41;;;1.52;100.00
27202;BME280;14717;46.924;15.474;2024-03-25T02:52:00;96929.13;;;1.43;100.00
27202;BME280;14717;46.924;15.474;2024-03-25T02:54:26;96923.19;;;1.20;100.00
27202;BME280;14717;46.924;15.474;2024-03-25T02:56:51;96931.06;;;1.47;100.00
27202;BME280;14717;46.924;15.474;2024-03-25T02:59:16;96938.31;;;1.63;100.00
27202;BME280;14717;46.924;15.474;2024-03-25T03:01:42;96934.81;;;1.72;100.00
27202;BME280;14717;46.924;15.474;2024-03-25T03:04:07;96929.91;;;1.69;100.00
27202;BME280;14717;46.924;15.474;2024-03-25T03:06:32;96936.72;;;1.72;100.00
27202;BME280;14717;46.924;15.474;2024-03-25T03:08:58;96942.28;;;1.87;100.00
27202;BME280;14717;46.924;15.474;2024-03-25T03:11:23;96953.19;;;1.87;100.00
27202;BME280;14717;46.924;15.474;2024-03-25T03:13:48;96946.38;;;1.53;100.00
27202;BME280;14717;46.924;15.474;2024-03-25T03:16:14;96938.00;;;1.28;100.00
27202;BME280;14717;46.924;15.474;2024-03-25T03:18:39;96947.56;;;1.10;100.00
27202;BME280;14717;46.924;15.474;2024-03-25T03:21:05;96945.00;;;0.98;100.00
27202;BME280;14717;46.924;15.474;2024-03-25T03:23:30;96956.78;;;1.04;100.00
27202;BME280;14717;46.924;15.474;2024-03-25T03:25:55;96954.25;;;0.97;100.00
27202;BME280;14717;46.924;15.474;2024-03-25T03:28:22;96954.69;;;0.89;100.00
27202;BME280;14717;46.924;15.474;2024-03-25T03:30:47;96961.91;;;0.79;100.00
27202;BME280;14717;46.924;15.474;2024-03-25T03:33:13;96956.44;;;0.74;100.00
27202;BME280;14717;46.924;15.474;2024-03-25T03:35:38;96946.84;;;0.93;100.00
27202;BME280;14717;46.924;15.474;2024-03-25T03:38:03;96942.19;;;1.15;100.00
27202;BME280;14717;46.924;15.474;2024-03-25T03:40:29;96948.91;;;1.07;100.00
27202;BME280;14717;46.924;15.474;2024-03-25T03:42:55;96948.19;;;1.17;100.00
27202;BME280;14717;46.924;15.474;2024-03-25T03:45:23;96955.97;;;1.08;100.00
27202;BME280;14717;46.924;15.474;2024-03-25T03:47:49;96948.13;;;1.12;100.00
27202;BME280;14717;46.924;15.474;2024-03-25T03:50:14;96951.03;;;1.00;100.00
27202;BME280;14717;46.924;15.474;2024-03-25T03:52:39;96949.06;;;0.96;100.00
27202;BME280;14717;46.924;15.474;2024-03-25T03:55:05;96952.75;;;1.11;100.00
27202;BME280;14717;46.924;15.474;2024-03-25T03:57:31;96948.81;;;1.24;100.00
27202;BME280;14717;46.924;15.474;2024-03-25T03:59:57;96952.34;;;1.24;100.00
27202;BME280;14717;46.924;15.474;2024-03-25T04:02:23;96949.94;;;1.27;100.00
27202;BME280;14717;46.924;15.474;2024-03-25T04:04:48;96947.22;;;1.27;100.00
27202;BME280;14717;46.924;15.474;2024-03-25T04:07:14;96953.47;;;1.02;100.00
27202;BME280;14717;46.924;15.474;2024-03-25T04:09:40;96961.16;;;1.10;100.00
27202;BME280;14717;46.924;15.474;2024-03-25T04:12:05;96971.13;;;1.26;100.00
27202;BME280;14717;46.924;15.474;2024-03-25T04:14:31;96967.84;;;1.24;100.00
27202;BME280;14717;46.924;15.474;2024-03-25T04:16:56;96973.66;;;1.32;100.00
27202;BME280;14717;46.924;15.474;2024-03-25T04:19:25;96980.44;;;1.34;100.00
27202;BME280;14717;46.924;15.474;2024-03-25T04:21:51;96985.28;;;1.27;100.00
27202;BME280;14717;46.924;15.474;2024-03-25T04:24:17;96989.19;;;1.36;100.00
27202;BME280;14717;46.924;15.474;2024-03-25T04:26:44;96976.41;;;1.37;100.00
27202;BME280;14717;46.924;15.474;2024-03-25T04:29:09;96974.25;;;1.39;100.00
27202;BME280;14717;46.924;15.474;2024-03-25T04:31:35;96987.81;;;1.34;100.00
27202;BME280;14717;46.924;15.474;2024-03-25T04:34:01;96987.13;;;1.48;100.00
27202;BME280;14717;46.924;15.474;2024-03-25T04:36:26;96993.03;;;1.40;100.00
27202;BME280;14717;46.924;15.474;2024-03-25T04:38:52;96994.34;;;1.12;100.00
27202;BME280;14717;46.924;15.474;2024-03-25T04:41:17;96987.84;;;1.13;100.00
27202;BME280;14717;46.924;15.474;2024-03-25T04:43:43;96996.22;;;1.32;100.00
27202;BME280;14717;46.924;15.474;2024-03-25T04:46:08;96984.94;;;1.45;100.00
27202;BME280;14717;46.924;15.474;2024-03-25T04:48:33;96995.25;;;1.43;100.00
27202;BME280;14717;46.924;15.474;2024-03-25T04:50:58;96995.31;;;1.48;100.00
27202;BME280;14717;46.924;15.474;2024-03-25T04:53:24;96984.88;;;1.40;100.00
27202;BME280;14717;46.924;15.474;2024-03-25T04:55:49;96990.63;;;1.44;100.00
27202;BME280;14717;46.924;15.474;2024-03-25T04:58:14;97003.06;;;1.61;100.00
27202;BME280;14717;46.924;15.474;2024-03-25T05:00:40;97001.19;;;1.40;100.00
27202;BME280;14717;46.924;15.474;2024-03-25T05:03:05;97009.59;;;1.13;100.00
27202;BME280;14717;46.924;15.474;2024-03-25T05:05:30;97007.75;;;1.18;100.00
27202;BME280;14717;46.924;15.474;2024-03-25T05:07:56;97008.34;;;1.46;100.00
27202;BME280;14717;46.924;15.474;2024-03-25T05:10:21;97014.34;;;1.48;100.00
27202;BME280;14717;46.924;15.474;2024-03-25T05:12:46;97013.09;;;1.34;100.00
27202;BME280;14717;46.924;15.474;2024-03-25T05:15:14;97015.50;;;1.57;100.00
27202;BME280;14717;46.924;15.474;2024-03-25T05:17:40;97006.13;;;1.69;100.00
27202;BME280;14717;46.924;15.474;2024-03-25T05:20:06;97011.75;;;1.63;100.00
27202;BME280;14717;46.924;15.474;2024-03-25T05:22:31;97012.75;;;1.52;100.00
27202;BME280;14717;46.924;15.474;2024-03-25T05:24:57;97015.94;;;1.75;100.00
27202;BME280;14717;46.924;15.474;2024-03-25T05:27:22;97016.34;;;1.89;100.00
27202;BME280;14717;46.924;15.474;2024-03-25T05:29:49;97027.59;;;1.97;100.00
27202;BME280;14717;46.924;15.474;2024-03-25T05:32:15;97033.25;;;1.91;100.00
27202;BME280;14717;46.924;15.474;2024-03-25T05:34:42;97031.81;;;2.14;100.00
27202;BME280;14717;46.924;15.474;2024-03-25T05:37:07;97040.84;;;2.20;100.00
27202;BME280;14717;46.924;15.474;2024-03-25T05:39:32;97034.50;;;2.10;100.00
27202;BME280;14717;46.924;15.474;2024-03-25T05:41:58;97039.28;;;2.29;100.00
27202;BME280;14717;46.924;15.474;2024-03-25T05:44:23;97039.06;;;2.35;100.00
27202;BME280;14717;46.924;15.474;2024-03-25T05:46:48;97046.72;;;2.43;100.00
27202;BME280;14717;46.924;15.474;2024-03-25T05:49:14;97042.47;;;2.57;100.00
27202;BME280;14717;46.924;15.474;2024-03-25T05:51:39;97042.47;;;2.57;100.00
27202;BME280;14717;46.924;15.474;2024-03-25T05:54:05;97051.38;;;2.43;100.00
27202;BME280;14717;46.924;15.474;2024-03-25T05:56:30;97056.63;;;2.54;100.00
27202;BME280;14717;46.924;15.474;2024-03-25T05:58:59;97062.41;;;2.62;100.00
27202;BME280;14717;46.924;15.474;2024-03-25T06:01:25;97056.16;;;2.67;100.00
27202;BME280;14717;46.924;15.474;2024-03-25T06:03:51;97057.31;;;2.76;100.00
27202;BME280;14717;46.924;15.474;2024-03-25T06:06:16;97078.59;;;2.79;100.00
27202;BME280;14717;46.924;15.474;2024-03-25T06:08:42;97081.56;;;2.77;100.00
27202;BME280;14717;46.924;15.474;2024-03-25T06:11:08;97070.72;;;2.87;100.00
27202;BME280;14717;46.924;15.474;2024-03-25T06:13:33;97077.59;;;2.95;100.00
27202;BME280;14717;46.924;15.474;2024-03-25T06:15:59;97082.78;;;2.96;100.00
27202;BME280;14717;46.924;15.474;2024-03-25T06:18:24;97085.13;;;2.73;100.00
27202;BME280;14717;46.924;15.474;2024-03-25T06:20:50;97080.25;;;2.80;100.00
27202;BME280;14717;46.924;15.474;2024-03-25T06:23:25;97081.28;;;2.74;100.00
27202;BME280;14717;46.924;15.474;2024-03-25T06:25:52;97086.38;;;2.60;100.00
27202;BME280;14717;46.924;15.474;2024-03-25T06:28:18;97089.34;;;2.59;100.00
27202;BME280;14717;46.924;15.474;2024-03-25T06:30:45;97093.19;;;2.58;100.00
27202;BME280;14717;46.924;15.474;2024-03-25T06:33:30;97084.38;;;2.92;100.00
27202;BME280;14717;46.924;15.474;2024-03-25T06:36:14;97087.19;;;3.07;100.00
27202;BME280;14717;46.924;15.474;2024-03-25T06:38:39;97086.81;;;2.84;100.00
27202;BME280;14717;46.924;15.474;2024-03-25T06:41:05;97080.88;;;2.96;100.00
27202;BME280;14717;46.924;15.474;2024-03-25T06:43:30;97090.78;;;3.12;100.00
27202;BME280;14717;46.924;15.474;2024-03-25T06:45:55;97082.72;;;3.32;100.00
27202;BME280;14717;46.924;15.474;2024-03-25T06:48:21;97081.09;;;3.46;100.00
27202;BME280;14717;46.924;15.474;2024-03-25T06:50:57;97081.72;;;3.68;100.00
27202;BME280;14717;46.924;15.474;2024-03-25T06:53:23;97086.16;;;3.83;100.00
27202;BME280;14717;46.924;15.474;2024-03-25T06:56:06;97085.09;;;3.94;100.00
27202;BME280;14717;46.924;15.474;2024-03-25T06:58:31;97093.88;;;4.26;100.00
27202;BME280;14717;46.924;15.474;2024-03-25T07:01:04;97093.34;;;4.59;100.00
27202;BME280;14717;46.924;15.474;2024-03-25T07:03:29;97090.28;;;4.90;100.00
27202;BME280;14717;46.924;15.474;2024-03-25T07:05:55;97079.31;;;5.09;100.00
27202;BME280;14717;46.924;15.474;2024-03-25T07:08:21;97086.28;;;5.50;100.00
27202;BME280;14717;46.924;15.474;2024-03-25T07:10:47;97078.22;;;5.78;100.00
27202;BME280;14717;46.924;15.474;2024-03-25T07:13:12;97078.94;;;5.98;100.00
27202;BME280;14717;46.924;15.474;2024-03-25T07:15:38;97076.34;;;6.17;100.00
27202;BME280;14717;46.924;15.474;2024-03-25T07:18:04;97082.34;;;6.24;100.00
27202;BME280;14717;46.924;15.474;2024-03-25T07:20:30;97075.63;;;6.44;100.00
27202;BME280;14717;46.924;15.474;2024-03-25T07:22:56;97087.59;;;6.53;100.00
27202;BME280;14717;46.924;15.474;2024-03-25T07:25:22;97080.84;;;6.74;100.00
27202;BME280;14717;46.924;15.474;2024-03-25T07:27:47;97082.31;;;6.62;94.12
27202;BME280;14717;46.924;15.474;2024-03-25T07:30:13;97088.72;;;6.85;97.36
27202;BME280;14717;46.924;15.474;2024-03-25T07:32:39;97092.13;;;7.01;96.25
27202;BME280;14717;46.924;15.474;2024-03-25T07:35:04;97094.19;;;7.14;97.83
27202;BME280;14717;46.924;15.474;2024-03-25T07:37:30;97086.28;;;7.07;96.32
27202;BME280;14717;46.924;15.474;2024-03-25T07:39:56;97088.06;;;7.21;95.83
27202;BME280;14717;46.924;15.474;2024-03-25T07:42:21;97079.50;;;7.51;93.87
27202;BME280;14717;46.924;15.474;2024-03-25T07:44:47;97081.75;;;7.91;91.43
27202;BME280;14717;46.924;15.474;2024-03-25T07:47:12;97082.84;;;8.08;89.68
27202;BME280;14717;46.924;15.474;2024-03-25T07:49:38;97080.47;;;8.02;87.90
27202;BME280;14717;46.924;15.474;2024-03-25T07:52:05;97089.59;;;8.20;91.35
27202;BME280;14717;46.924;15.474;2024-03-25T07:54:30;97093.16;;;8.39;89.81
27202;BME280;14717;46.924;15.474;2024-03-25T07:56:56;97095.63;;;8.22;90.85
27202;BME280;14717;46.924;15.474;2024-03-25T07:59:21;97098.84;;;8.06;89.62
27202;BME280;14717;46.924;15.474;2024-03-25T08:01:46;97089.47;;;8.30;92.77
27202;BME280;14717;46.924;15.474;2024-03-25T08:04:12;97097.41;;;8.50;90.74
27202;BME280;14717;46.924;15.474;2024-03-25T08:06:38;97089.34;;;8.72;88.48
27202;BME280;14717;46.924;15.474;2024-03-25T08:09:03;97099.13;;;8.96;85.52
27202;BME280;14717;46.924;15.474;2024-03-25T08:11:31;97094.84;;;8.72;86.61
27202;BME280;14717;46.924;15.474;2024-03-25T08:13:56;97100.13;;;8.87;84.03
27202;BME280;14717;46.924;15.474;2024-03-25T08:16:21;97095.69;;;8.54;85.09
27202;BME280;14717;46.924;15.474;2024-03-25T08:18:47;97098.25;;;8.82;86.41
27202;BME280;14717;46.924;15.474;2024-03-25T08:21:12;97096.84;;;8.85;82.09
27202;BME280;14717;46.924;15.474;2024-03-25T08:23:37;97094.84;;;9.03;80.44
27202;BME280;14717;46.924;15.474;2024-03-25T08:26:03;97097.59;;;9.35;78.53
27202;BME280;14717;46.924;15.474;2024-03-25T08:28:28;97091.63;;;9.60;76.40
27202;BME280;14717;46.924;15.474;2024-03-25T08:30:53;97086.09;;;9.60;73.52
27202;BME280;14717;46.924;15.474;2024-03-25T08:33:19;97091.09;;;9.84;71.75
27202;BME280;14717;46.924;15.474;2024-03-25T08:35:44;97077.69;;;10.18;71.51
27202;BME280;14717;46.924;15.474;2024-03-25T08:38:09;97083.59;;;10.38;69.31
27202;BME280;14717;46.924;15.474;2024-03-25T08:40:35;97087.78;;;10.36;68.02
27202;BME280;14717;46.924;15.474;2024-03-25T08:43:00;97070.38;;;10.49;66.08
27202;BME280;14717;46.924;15.474;2024-03-25T08:45:25;97079.97;;;10.86;66.59
27202;BME280;14717;46.924;15.474;2024-03-25T08:47:51;97080.81;;;10.95;62.82
27202;BME280;14717;46.924;15.474;2024-03-25T08:50:16;97076.28;;;10.99;62.32
27202;BME280;14717;46.924;15.474;2024-03-25T08:52:42;97067.47;;;11.41;63.24
27202;BME280;14717;46.924;15.474;2024-03-25T08:55:07;97075.81;;;11.79;58.69
27202;BME280;14717;46.924;15.474;2024-03-25T08:57:33;97070.28;;;11.79;52.48
27202;BME280;14717;46.924;15.474;2024-03-25T08:59:58;97071.44;;;11.78;54.89
27202;BME280;14717;46.924;15.474;2024-03-25T09:02:23;97074.81;;;11.75;53.39
27202;BME280;14717;46.924;15.474;2024-03-25T09:04:49;97064.16;;;11.99;54.25
27202;BME280;14717;46.924;15.474;2024-03-25T09:07:14;97054.75;;;12.08;51.83
27202;BME280;14717;46.924;15.474;2024-03-25T09:09:40;97063.28;;;12.45;48.80
27202;BME280;14717;46.924;15.474;2024-03-25T09:12:24;97058.56;;;12.29;47.38
27202;BME280;14717;46.924;15.474;2024-03-25T09:14:49;97053.81;;;12.30;47.67
27202;BME280;14717;46.924;15.474;2024-03-25T09:17:14;97052.34;;;12.32;45.14
27202;BME280;14717;46.924;15.474;2024-03-25T09:19:41;97052.88;;;12.76;45.11
27202;BME280;14717;46.924;15.474;2024-03-25T09:22:06;97053.22;;;12.83;45.18
27202;BME280;14717;46.924;15.474;2024-03-25T09:24:31;97056.66;;;13.05;48.60
27202;BME280;14717;46.924;15.474;2024-03-25T09:26:57;97050.88;;;13.35;42.49
27202;BME280;14717;46.924;15.474;2024-03-25T09:29:22;97047.56;;;13.50;43.83
27202;BME280;14717;46.924;15.474;2024-03-25T09:31:47;97046.59;;;13.46;40.84
27202;BME280;14717;46.924;15.474;2024-03-25T09:34:13;97047.47;;;13.30;41.66
27202;BME280;14717;46.924;15.474;2024-03-25T09:36:38;97050.56;;;13.28;41.12
27202;BME280;14717;46.924;15.474;2024-03-25T09:39:04;97048.19;;;12.85;41.55
27202;BME280;14717;46.924;15.474;2024-03-25T09:41:30;97054.31;;;13.24;42.52
27202;BME280;14717;46.924;15.474;2024-03-25T09:44:00;97048.94;;;13.36;40.00
27202;BME280;14717;46.924;15.474;2024-03-25T09:46:26;97045.88;;;13.04;42.70
27202;BME280;14717;46.924;15.474;2024-03-25T09:48:53;97048.16;;;13.02;43.88
27202;BME280;14717;46.924;15.474;2024-03-25T09:51:18;97051.50;;;13.49;41.36
27202;BME280;14717;46.924;15.474;2024-03-25T09:53:44;97051.75;;;13.02;40.77
27202;BME280;14717;46.924;15.474;2024-03-25T09:56:10;97035.16;;;13.56;40.46
27202;BME280;14717;46.924;15.474;2024-03-25T09:58:35;97042.50;;;13.89;40.72
27202;BME280;14717;46.924;15.474;2024-03-25T10:01:01;97043.50;;;13.85;37.50
27202;BME280;14717;46.924;15.474;2024-03-25T10:03:27;97034.56;;;14.16;36.68
27202;BME280;14717;46.924;15.474;2024-03-25T10:05:52;97045.72;;;14.37;36.99
27202;BME280;14717;46.924;15.474;2024-03-25T10:08:21;97038.78;;;14.43;39.18
27202;BME280;14717;46.924;15.474;2024-03-25T10:10:46;97033.75;;;14.45;38.15
27202;BME280;14717;46.924;15.474;2024-03-25T10:13:12;97042.75;;;14.62;37.23
27202;BME280;14717;46.924;15.474;2024-03-25T10:15:37;97042.88;;;14.45;36.49
27202;BME280;14717;46.924;15.474;2024-03-25T10:18:03;97036.84;;;14.14;37.25
27202;BME280;14717;46.924;15.474;2024-03-25T10:20:28;97033.50;;;14.29;37.47
27202;BME280;14717;46.924;15.474;2024-03-25T10:22:53;97038.13;;;14.46;38.08
27202;BME280;14717;46.924;15.474;2024-03-25T10:25:29;97030.69;;;14.58;37.00
27202;BME280;14717;46.924;15.474;2024-03-25T10:27:59;97029.75;;;14.74;36.01
27202;BME280;14717;46.924;15.474;2024-03-25T10:30:25;97037.00;;;14.47;36.95
27202;BME280;14717;46.924;15.474;2024-03-25T10:32:57;97033.53;;;14.90;37.62
27202;BME280;14717;46.924;15.474;2024-03-25T10:35:28;97027.63;;;14.71;35.25
27202;BME280;14717;46.924;15.474;2024-03-25T10:38:02;97028.66;;;14.47;35.63
27202;BME280;14717;46.924;15.474;2024-03-25T10:40:32;97033.09;;;14.39;36.95
27202;BME280;14717;46.924;15.474;2024-03-25T10:43:19;97028.81;;;14.21;35.16
27202;BME280;14717;46.924;15.474;2024-03-25T10:45:49;97031.06;;;13.91;36.56
27202;BME280;14717;46.924;15.474;2024-03-25T10:48:34;97029.34;;;13.78;35.15
27202;BME280;14717;46.924;15.474;2024-03-25T10:51:01;97024.91;;;13.85;36.35
27202;BME280;14717;46.924;15.474;2024-03-25T10:53:29;97015.84;;;14.05;36.24
27202;BME280;14717;46.924;15.474;2024-03-25T10:55:56;97015.22;;;14.28;35.41
27202;BME280;14717;46.924;15.474;2024-03-25T10:58:22;97011.09;;;14.54;37.64
27202;BME280;14717;46.924;15.474;2024-03-25T11:00:49;97015.69;;;14.50;36.84
27202;BME280;14717;46.924;15.474;2024-03-25T11:03:16;97005.03;;;14.93;35.16
27202;BME280;14717;46.924;15.474;2024-03-25T11:05:42;97008.13;;;14.59;34.44
27202;BME280;14717;46.924;15.474;2024-03-25T11:08:14;96995.63;;;14.65;34.32
27202;BME280;14717;46.924;15.474;2024-03-25T11:10:41;97002.53;;;14.80;33.00
27202;BME280;14717;46.924;15.474;2024-03-25T11:13:13;97006.16;;;15.12;33.74
27202;BME280;14717;46.924;15.474;2024-03-25T11:15:43;97001.25;;;14.57;33.49
27202;BME280;14717;46.924;15.474;2024-03-25T11:18:17;97005.88;;;14.53;34.87
27202;BME280;14717;46.924;15.474;2024-03-25T11:20:43;97004.66;;;14.83;36.14
27202;BME280;14717;46.924;15.474;2024-03-25T11:23:13;96996.34;;;14.94;33.22
27202;BME280;14717;46.924;15.474;2024-03-25T11:25:39;96992.84;;;14.45;34.15
27202;BME280;14717;46.924;15.474;2024-03-25T11:28:05;96992.22;;;15.00;33.31
27202;BME280;14717;46.924;15.474;2024-03-25T11:30:31;96990.06;;;15.50;33.37
27202;BME280;14717;46.924;15.474;2024-03-25T11:32:57;96992.63;;;15.67;33.95
27202;BME280;14717;46.924;15.474;2024-03-25T11:35:22;96994.00;;;15.61;31.53
27202;BME280;14717;46.924;15.474;2024-03-25T11:37:48;96982.56;;;15.18;33.63
27202;BME280;14717;46.924;15.474;2024-03-25T11:40:15;96980.28;;;15.44;33.62
27202;BME280;14717;46.924;15.474;2024-03-25T11:42:40;96984.84;;;15.16;35.16
27202;BME280;14717;46.924;15.474;2024-03-25T11:45:07;96975.31;;;15.49;33.34
27202;BME280;14717;46.924;15.474;2024-03-25T11:47:33;96972.91;;;15.48;31.76
27202;BME280;14717;46.924;15.474;2024-03-25T11:49:58;96975.00;;;15.63;32.86
27202;BME280;14717;46.924;15.474;2024-03-25T11:52:24;96952.63;;;15.83;32.58
27202;BME280;14717;46.924;15.474;2024-03-25T11:54:55;96958.75;;;15.76;33.32
27202;BME280;14717;46.924;15.474;2024-03-25T11:57:21;96957.47;;;15.98;31.81
27202;BME280;14717;46.924;15.474;2024-03-25T11:59:47;96940.63;;;16.06;31.24
27202;BME280;14717;46.924;15.474;2024-03-25T12:02:15;96941.94;;;15.85;30.93
27202;BME280;14717;46.924;15.474;2024-03-25T12:04:44;96943.09;;;15.72;31.41
27202;BME280;14717;46.924;15.474;2024-03-25T12:07:14;96941.59;;;15.86;31.70
27202;BME280;14717;46.924;15.474;2024-03-25T12:09:39;96925.78;;;15.90;32.48
27202;BME280;14717;46.924;15.474;2024-03-25T12:12:24;96929.28;;;15.75;33.19
27202;BME280;14717;46.924;15.474;2024-03-25T12:14:50;96934.75;;;15.96;30.85
27202;BME280;14717;46.924;15.474;2024-03-25T12:17:16;96934.63;;;16.04;33.02
27202;BME280;14717;46.924;15.474;2024-03-25T12:19:42;96933.00;;;15.91;31.18
27202;BME280;14717;46.924;15.474;2024-03-25T12:22:07;96928.22;;;16.27;33.14
27202;BME280;14717;46.924;15.474;2024-03-25T12:24:33;96934.63;;;15.45;31.87
27202;BME280;14717;46.924;15.474;2024-03-25T12:26:58;96930.44;;;15.75;32.24
27202;BME280;14717;46.924;15.474;2024-03-25T12:29:24;96928.22;;;15.80;31.60
27202;BME280;14717;46.924;15.474;2024-03-25T12:31:56;96921.50;;;15.81;31.91
27202;BME280;14717;46.924;15.474;2024-03-25T12:34:21;96926.84;;;15.86;33.15
27202;BME280;14717;46.924;15.474;2024-03-25T12:36:48;96925.81;;;15.67;31.05
27202;BME280;14717;46.924;15.474;2024-03-25T12:39:17;96928.34;;;15.95;31.41
27202;BME280;14717;46.924;15.474;2024-03-25T12:41:44;96928.69;;;15.70;31.09
27202;BME280;14717;46.924;15.474;2024-03-25T12:44:11;96919.41;;;15.54;30.54
27202;BME280;14717;46.924;15.474;2024-03-25T12:46:37;96916.88;;;15.61;31.05